createdAt,value
2018-05-13T00:00:06.457Z,15.50
2018-05-13T00:02:36.941Z,15.40
2018-05-13T00:05:07.456Z,15.50
2018-05-13T00:07:37.615Z,15.40
2018-05-13T00:10:08.288Z,15.40
2018-05-13T00:12:38.787Z,15.30
2018-05-13T00:15:08.870Z,15.30
2018-05-13T00:17:40.051Z,15.20
2018-05-13T00:20:10.218Z,15.20
2018-05-13T00:22:41.668Z,15.20
2018-05-13T00:25:11.757Z,15.20
2018-05-13T00:27:42.201Z,15.10
2018-05-13T00:30:12.548Z,15.10
2018-05-13T00:32:49.003Z,15.00
2018-05-13T00:35:19.418Z,15.00
2018-05-13T00:37:49.515Z,15.00
2018-05-13T00:40:19.855Z,15.00
2018-05-13T00:42:50.409Z,15.00
2018-05-13T00:45:21.290Z,15.00
2018-05-13T00:47:51.611Z,15.00
2018-05-13T00:50:21.775Z,15.00
2018-05-13T00:52:52.619Z,15.00
2018-05-13T00:55:22.783Z,15.10
2018-05-13T00:57:53.268Z,15.00
2018-05-13T01:00:23.682Z,15.10
2018-05-13T01:02:54.357Z,15.10
2018-05-13T01:05:24.764Z,15.10
2018-05-13T01:07:54.936Z,15.20
2018-05-13T01:10:25.277Z,15.20
2018-05-13T01:12:55.539Z,15.30
2018-05-13T01:15:26.036Z,15.30
2018-05-13T01:17:56.481Z,15.30
2018-05-13T01:20:27.770Z,15.20
2018-05-13T01:22:58.517Z,15.20
2018-05-13T01:25:28.883Z,15.20
2018-05-13T01:27:59.772Z,15.20
2018-05-13T01:30:29.866Z,15.20
2018-05-13T01:33:04.424Z,15.10
2018-05-13T01:35:34.846Z,15.10
2018-05-13T01:38:05.715Z,15.00
2018-05-13T01:40:36.808Z,14.90
2018-05-13T01:43:07.254Z,14.90
2018-05-13T01:45:37.337Z,14.90
2018-05-13T01:48:07.620Z,14.90
2018-05-13T01:50:38.141Z,14.90
2018-05-13T01:53:09.033Z,14.90
2018-05-13T01:55:39.115Z,14.90
2018-05-13T01:58:10.320Z,14.90
2018-05-13T02:00:40.431Z,14.80
2018-05-13T02:03:10.695Z,14.90
2018-05-13T02:05:41.160Z,14.90
2018-05-13T02:08:11.829Z,14.90
2018-05-13T02:10:42.741Z,15.00
2018-05-13T02:13:12.848Z,15.00
2018-05-13T02:15:43.320Z,15.00
2018-05-13T02:18:13.977Z,15.00
2018-05-13T02:20:44.297Z,15.00
2018-05-13T02:23:15.066Z,15.00
2018-05-13T02:25:45.528Z,15.00
2018-05-13T02:28:15.887Z,15.00
2018-05-13T02:30:46.322Z,15.00
2018-05-13T02:33:19.184Z,15.00
2018-05-13T02:35:49.587Z,15.00
2018-05-13T02:38:20.646Z,15.00
2018-05-13T02:40:50.871Z,15.00
2018-05-13T02:43:21.215Z,14.90
2018-05-13T02:45:51.584Z,14.90
2018-05-13T02:48:21.653Z,14.90
2018-05-13T02:50:52.492Z,14.90
2018-05-13T02:53:22.640Z,14.90
2018-05-13T02:55:53.087Z,14.90
2018-05-13T02:58:23.169Z,14.90
2018-05-13T03:00:53.259Z,15.00
2018-05-13T03:03:24.159Z,15.00
2018-05-13T03:05:54.575Z,14.90
2018-05-13T03:08:26.680Z,14.80
2018-05-13T03:10:57.026Z,14.80
2018-05-13T03:13:28.160Z,14.80
2018-05-13T03:15:59.043Z,14.70
2018-05-13T03:18:29.417Z,14.70
2018-05-13T03:20:59.535Z,14.70
2018-05-13T03:23:29.672Z,14.60
2018-05-13T03:26:00.176Z,14.60
2018-05-13T03:28:31.008Z,14.40
2018-05-13T03:31:01.496Z,14.40
2018-05-13T03:33:33.248Z,14.50
2018-05-13T03:36:03.355Z,14.40
2018-05-13T03:38:33.458Z,14.40
2018-05-13T03:41:04.698Z,14.40
2018-05-13T03:43:35.589Z,14.40
2018-05-13T03:46:05.683Z,14.40
2018-05-13T03:48:35.752Z,14.50
2018-05-13T03:51:05.895Z,14.50
2018-05-13T03:53:37.072Z,14.50
2018-05-13T03:56:07.174Z,14.50
2018-05-13T03:58:37.280Z,14.60
2018-05-13T04:01:07.603Z,14.60
2018-05-13T04:03:38.120Z,14.60
2018-05-13T04:06:09.039Z,14.60
2018-05-13T04:08:50.644Z,14.70
2018-05-13T04:13:34.787Z,14.60
2018-05-13T04:16:04.891Z,14.70
2018-05-13T04:18:35.487Z,14.80
2018-05-13T04:21:06.469Z,14.90
2018-05-13T04:23:37.828Z,14.80
2018-05-13T04:26:08.462Z,14.80
2018-05-13T04:28:39.120Z,14.90
2018-05-13T04:31:09.237Z,15.00
2018-05-13T04:33:46.963Z,15.00
2018-05-13T04:36:17.019Z,15.10
2018-05-13T04:38:47.862Z,15.30
2018-05-13T04:41:18.737Z,15.30
2018-05-13T04:43:49.450Z,15.40
2018-05-13T04:46:19.712Z,15.60
2018-05-13T04:48:49.810Z,15.70
2018-05-13T04:51:20.195Z,15.70
2018-05-13T04:53:51.012Z,15.80
2018-05-13T04:56:21.883Z,16.00
2018-05-13T04:58:53.048Z,16.10
2018-05-13T05:01:23.403Z,16.10
2018-05-13T05:03:53.460Z,16.20
2018-05-13T05:06:25.100Z,16.40
2018-05-13T05:08:55.624Z,16.40
2018-05-13T05:11:26.114Z,16.60
2018-05-13T05:13:56.191Z,16.60
2018-05-13T05:16:26.280Z,16.70
2018-05-13T05:18:56.883Z,16.60
2018-05-13T05:21:27.045Z,16.70
2018-05-13T05:23:58.121Z,16.90
2018-05-13T05:26:28.866Z,16.80
2018-05-13T05:28:58.980Z,17.00
2018-05-13T05:31:30.083Z,17.20
2018-05-13T05:34:03.191Z,17.20
2018-05-13T05:36:34.144Z,17.40
2018-05-13T05:39:04.748Z,17.40
2018-05-13T05:41:35.612Z,17.70
2018-05-13T05:44:05.707Z,17.60
2018-05-13T05:46:36.099Z,17.70
2018-05-13T05:49:06.254Z,18.00
2018-05-13T05:51:37.066Z,18.00
2018-05-13T05:54:07.548Z,18.00
2018-05-13T05:56:37.743Z,18.20
2018-05-13T05:59:08.922Z,18.40
2018-05-13T06:01:39.280Z,18.30
2018-05-13T06:04:09.390Z,18.50
2018-05-13T06:06:39.806Z,18.60
2018-05-13T06:09:10.308Z,18.60
2018-05-13T06:11:40.393Z,18.60
2018-05-13T06:14:10.673Z,18.60
2018-05-13T06:16:40.866Z,18.80
2018-05-13T06:19:11.455Z,18.90
2018-05-13T06:21:42.416Z,19.00
2018-05-13T06:24:13.429Z,19.10
2018-05-13T06:26:43.667Z,19.10
2018-05-13T06:29:14.771Z,19.20
2018-05-13T06:31:45.691Z,19.20
2018-05-13T06:34:17.590Z,19.20
2018-05-13T06:36:47.950Z,19.20
2018-05-13T06:39:18.039Z,19.30
2018-05-13T06:41:48.439Z,19.50
2018-05-13T06:44:18.880Z,19.60
2018-05-13T06:46:49.269Z,19.70
2018-05-13T06:49:20.097Z,19.80
2018-05-13T06:51:50.454Z,19.80
2018-05-13T06:54:20.816Z,19.90
2018-05-13T06:56:51.673Z,20.40
2018-05-13T06:59:22.212Z,20.30
2018-05-13T07:01:52.551Z,20.50
2018-05-13T07:04:22.656Z,20.70
2018-05-13T07:06:52.740Z,20.60
2018-05-13T07:09:23.827Z,20.80
2018-05-13T07:11:54.208Z,20.80
2018-05-13T07:14:25.104Z,21.00
2018-05-13T07:16:55.171Z,21.00
2018-05-13T07:19:26.391Z,21.10
2018-05-13T07:21:56.528Z,21.00
2018-05-13T07:24:27.388Z,21.40
2018-05-13T07:26:57.734Z,21.30
2018-05-13T07:29:27.812Z,21.30
2018-05-13T07:31:58.657Z,21.30
2018-05-13T07:34:32.929Z,21.30
2018-05-13T07:37:03.068Z,21.50
2018-05-13T07:39:34.189Z,21.70
2018-05-13T07:42:04.635Z,21.60
2018-05-13T07:44:35.487Z,21.90
2018-05-13T07:47:07.490Z,21.90
2018-05-13T07:49:37.903Z,21.90
2018-05-13T07:52:08.476Z,22.00
2018-05-13T07:54:38.816Z,22.10
2018-05-13T07:57:08.928Z,22.30
2018-05-13T07:59:39.808Z,22.30
2018-05-13T08:02:10.091Z,22.30
2018-05-13T08:04:41.347Z,22.70
2018-05-13T08:07:12.372Z,22.40
2018-05-13T08:09:42.492Z,22.40
2018-05-13T08:12:12.796Z,22.50
2018-05-13T08:14:42.917Z,22.80
2018-05-13T08:17:13.182Z,22.90
2018-05-13T08:19:44.037Z,22.80
2018-05-13T08:22:14.404Z,22.80
2018-05-13T08:24:44.523Z,23.00
2018-05-13T08:27:14.689Z,22.90
2018-05-13T08:29:45.545Z,23.10
2018-05-13T08:32:15.979Z,23.10
2018-05-13T08:34:48.084Z,23.20
2018-05-13T08:37:18.171Z,23.10
2018-05-13T08:39:48.507Z,23.20
2018-05-13T08:42:18.601Z,23.40
2018-05-13T08:44:49.001Z,23.30
2018-05-13T08:47:19.437Z,23.40
2018-05-13T08:49:49.595Z,23.70
2018-05-13T08:52:20.052Z,24.00
2018-05-13T08:54:50.553Z,24.00
2018-05-13T08:57:20.950Z,23.90
2018-05-13T08:59:51.070Z,23.90
2018-05-13T09:02:21.416Z,24.10
2018-05-13T09:04:51.777Z,24.10
2018-05-13T09:07:23.474Z,24.30
2018-05-13T09:09:54.657Z,24.40
2018-05-13T09:12:24.726Z,24.40
2018-05-13T09:14:54.803Z,24.40
2018-05-13T09:17:25.169Z,24.30
2018-05-13T09:19:55.468Z,24.60
2018-05-13T09:22:26.356Z,24.60
2018-05-13T09:24:56.729Z,24.60
2018-05-13T09:27:27.625Z,24.50
2018-05-13T09:29:57.952Z,24.50
2018-05-13T09:32:28.076Z,24.50
2018-05-13T09:35:03.480Z,24.50
2018-05-13T09:37:33.808Z,24.60
2018-05-13T09:40:03.982Z,24.70
2018-05-13T09:42:34.084Z,24.90
2018-05-13T09:45:04.578Z,25.10
2018-05-13T09:47:34.637Z,25.10
2018-05-13T09:50:04.962Z,25.10
2018-05-13T09:52:36.157Z,25.30
2018-05-13T09:55:06.513Z,25.30
2018-05-13T09:57:36.787Z,25.30
2018-05-13T10:00:07.464Z,25.50
2018-05-13T10:02:38.163Z,25.60
2018-05-13T10:05:09.454Z,25.50
2018-05-13T10:07:39.566Z,25.40
2018-05-13T10:10:10.325Z,25.60
2018-05-13T10:12:40.403Z,25.60
2018-05-13T10:15:10.484Z,25.80
2018-05-13T10:17:41.398Z,26.20
2018-05-13T10:20:12.003Z,26.10
2018-05-13T10:22:42.090Z,25.90
2018-05-13T10:25:12.191Z,26.00
2018-05-13T10:27:43.380Z,26.10
2018-05-13T10:30:13.531Z,26.10
2018-05-13T10:32:43.662Z,26.10
2018-05-13T10:35:28.931Z,26.40
2018-05-13T10:37:59.079Z,26.40
2018-05-13T10:40:30.524Z,26.20
2018-05-13T10:43:01.372Z,26.60
2018-05-13T10:45:31.468Z,26.60
2018-05-13T10:50:09.109Z,26.60
2018-05-13T10:52:39.349Z,26.60
2018-05-13T10:55:09.773Z,27.20
2018-05-13T10:57:40.401Z,27.40
2018-05-13T11:00:11.939Z,27.30
2018-05-13T11:02:42.343Z,27.30
2018-05-13T11:05:14.275Z,27.90
2018-05-13T11:07:44.417Z,27.90
2018-05-13T11:10:15.613Z,28.00
2018-05-13T11:12:45.755Z,28.00
2018-05-13T11:15:15.911Z,27.90
2018-05-13T11:17:46.355Z,27.70
2018-05-13T11:20:16.519Z,28.10
2018-05-13T11:22:47.639Z,27.80
2018-05-13T11:25:17.980Z,27.60
2018-05-13T11:27:48.064Z,28.50
2018-05-13T11:30:18.131Z,28.60
2018-05-13T11:32:48.207Z,28.60
2018-05-13T11:35:18.480Z,29.20
2018-05-13T11:37:49.911Z,28.90
2018-05-13T11:40:20.865Z,28.90
2018-05-13T11:42:53.184Z,28.80
2018-05-13T11:45:23.352Z,29.30
2018-05-13T11:47:53.465Z,28.50
2018-05-13T11:50:23.572Z,28.60
2018-05-13T11:52:55.780Z,28.90
2018-05-13T11:55:26.446Z,28.80
2018-05-13T11:57:56.699Z,29.10
2018-05-13T12:00:26.806Z,30.00
2018-05-13T12:02:57.745Z,30.40
2018-05-13T12:05:28.098Z,31.00
2018-05-13T12:07:58.250Z,31.30
2018-05-13T12:10:29.356Z,31.60
2018-05-13T12:12:59.807Z,31.50
2018-05-13T12:15:30.884Z,31.30
2018-05-13T12:18:01.026Z,31.30
2018-05-13T12:20:31.764Z,31.40
2018-05-13T12:23:01.930Z,31.20
2018-05-13T12:25:32.317Z,31.10
2018-05-13T12:28:02.433Z,31.40
2018-05-13T12:30:32.868Z,32.00
2018-05-13T12:33:03.046Z,32.80
2018-05-13T12:35:33.292Z,33.00
2018-05-13T12:38:03.877Z,33.70
2018-05-13T12:40:33.915Z,33.20
2018-05-13T12:43:03.995Z,33.20
2018-05-13T12:45:34.427Z,32.80
2018-05-13T12:48:05.309Z,31.20
2018-05-13T12:50:35.402Z,31.20
2018-05-13T12:53:07.497Z,31.90
2018-05-13T12:55:37.934Z,31.90
2018-05-13T12:58:08.118Z,32.20
2018-05-13T13:00:39.017Z,32.40
2018-05-13T13:03:09.306Z,32.40
2018-05-13T13:05:40.558Z,32.80
2018-05-13T13:08:11.100Z,32.80
2018-05-13T13:10:41.416Z,32.20
2018-05-13T13:13:11.643Z,31.60
2018-05-13T13:15:42.758Z,30.60
2018-05-13T13:18:12.964Z,29.50
2018-05-13T13:20:43.135Z,29.10
2018-05-13T13:23:13.617Z,29.80
2018-05-13T13:25:43.879Z,31.30
2018-05-13T13:28:14.470Z,31.50
2018-05-13T13:30:44.964Z,31.10
2018-05-13T13:33:15.287Z,30.40
2018-05-13T13:35:45.639Z,29.90
2018-05-13T13:38:16.863Z,29.40
2018-05-13T13:40:47.051Z,29.30
2018-05-13T13:43:17.256Z,30.70
2018-05-13T13:45:48.990Z,31.80
2018-05-13T13:48:19.245Z,31.40
2018-05-13T13:50:49.455Z,31.80
2018-05-13T13:53:19.629Z,31.70
2018-05-13T13:55:50.073Z,31.70
2018-05-13T13:58:21.252Z,33.00
2018-05-13T14:00:51.449Z,33.00
2018-05-13T14:03:21.926Z,33.60
2018-05-13T14:05:52.393Z,34.60
2018-05-13T14:08:23.357Z,32.30
2018-05-13T14:10:53.870Z,32.30
2018-05-13T14:13:24.153Z,32.30
2018-05-13T14:15:54.345Z,31.50
2018-05-13T14:18:24.898Z,30.60
2018-05-13T14:20:55.109Z,30.40
2018-05-13T14:23:25.347Z,30.70
2018-05-13T14:25:55.798Z,31.40
2018-05-13T14:28:27.398Z,32.80
2018-05-13T14:30:58.550Z,32.70
2018-05-13T14:33:28.724Z,33.70
2018-05-13T14:35:58.907Z,33.50
2018-05-13T14:38:29.472Z,33.30
2018-05-13T14:40:59.750Z,33.50
2018-05-13T14:43:29.913Z,34.10
2018-05-13T14:46:00.857Z,34.50
2018-05-13T14:48:32.098Z,34.20
2018-05-13T14:51:02.277Z,34.10
2018-05-13T14:53:32.791Z,34.70
2018-05-13T14:56:03.400Z,34.90
2018-05-13T14:58:33.795Z,34.70
2018-05-13T15:01:03.986Z,33.80
2018-05-13T15:03:34.778Z,33.40
2018-05-13T15:06:05.733Z,33.80
2018-05-13T15:08:37.788Z,34.40
2018-05-13T15:11:09.073Z,34.70
2018-05-13T15:13:39.396Z,34.70
2018-05-13T15:16:09.729Z,34.50
2018-05-13T15:18:40.392Z,33.80
2018-05-13T15:21:12.312Z,33.60
2018-05-13T15:23:42.449Z,33.50
2018-05-13T15:26:13.007Z,33.30
2018-05-13T15:28:43.151Z,33.50
2018-05-13T15:31:13.295Z,34.00
2018-05-13T15:33:43.534Z,34.00
2018-05-13T15:36:13.729Z,34.10
2018-05-13T15:38:44.288Z,34.70
2018-05-13T15:41:14.425Z,33.80
2018-05-13T15:43:45.015Z,33.70
2018-05-13T15:46:15.216Z,34.10
2018-05-13T15:48:45.531Z,33.20
2018-05-13T15:51:16.464Z,33.00
2018-05-13T15:53:46.532Z,33.00
2018-05-13T15:56:17.679Z,34.20
2018-05-13T15:58:48.536Z,33.20
2018-05-13T16:01:18.643Z,33.20
2018-05-13T16:03:48.798Z,33.60
2018-05-13T16:06:19.188Z,33.70
2018-05-13T16:08:49.319Z,34.00
2018-05-13T16:11:19.488Z,34.20
2018-05-13T16:13:50.674Z,34.00
2018-05-13T16:16:21.030Z,33.80
2018-05-13T16:18:52.054Z,33.60
2018-05-13T16:21:22.133Z,33.60
2018-05-13T16:23:52.615Z,33.70
2018-05-13T16:26:23.545Z,33.70
2018-05-13T16:28:53.992Z,33.70
2018-05-13T16:31:25.215Z,34.10
2018-05-13T16:33:56.357Z,33.40
2018-05-13T16:36:26.553Z,33.30
2018-05-13T16:38:56.958Z,33.40
2018-05-13T16:41:27.063Z,33.80
2018-05-13T16:43:57.225Z,33.10
2018-05-13T16:46:28.243Z,33.10
2018-05-13T16:48:58.614Z,32.60
2018-05-13T16:51:28.788Z,32.30
2018-05-13T16:53:59.274Z,32.80
2018-05-13T16:56:30.335Z,33.00
2018-05-13T16:59:00.740Z,33.00
2018-05-13T17:01:31.209Z,32.80
2018-05-13T17:04:01.377Z,32.50
2018-05-13T17:06:31.604Z,32.70
2018-05-13T17:09:01.989Z,33.50
2018-05-13T17:11:32.846Z,33.90
2018-05-13T17:14:02.970Z,34.60
2018-05-13T17:16:33.369Z,33.90
2018-05-13T17:19:03.472Z,32.70
2018-05-13T17:21:33.589Z,31.60
2018-05-13T17:24:03.901Z,31.60
2018-05-13T17:26:34.317Z,31.70
2018-05-13T17:29:04.781Z,31.30
2018-05-13T17:31:34.921Z,31.20
2018-05-13T17:34:05.258Z,30.90
2018-05-13T17:36:35.404Z,30.50
2018-05-13T17:39:07.283Z,30.00
2018-05-13T17:41:37.369Z,29.90
2018-05-13T17:44:07.568Z,29.40
2018-05-13T17:46:38.682Z,29.70
2018-05-13T17:49:08.807Z,29.70
2018-05-13T17:51:39.196Z,30.10
2018-05-13T17:54:09.424Z,30.40
2018-05-13T17:56:39.639Z,30.90
2018-05-13T17:59:10.183Z,30.90
2018-05-13T18:01:40.246Z,30.00
2018-05-13T18:04:10.564Z,29.60
2018-05-13T18:06:41.426Z,29.00
2018-05-13T18:09:11.879Z,29.00
2018-05-13T18:11:42.111Z,28.80
2018-05-13T18:14:12.685Z,28.60
2018-05-13T18:16:44.000Z,27.30
2018-05-13T18:19:14.450Z,27.30
2018-05-13T18:21:44.668Z,27.60
2018-05-13T18:24:14.875Z,27.80
2018-05-13T18:26:45.156Z,27.70
2018-05-13T18:29:15.570Z,27.60
2018-05-13T18:31:45.973Z,27.70
2018-05-13T18:34:16.135Z,27.60
2018-05-13T18:36:46.514Z,27.40
2018-05-13T18:39:16.811Z,27.00
2018-05-13T18:41:47.067Z,26.40
2018-05-13T18:44:18.319Z,26.00
2018-05-13T18:46:49.244Z,26.10
2018-05-13T18:49:19.345Z,26.00
2018-05-13T18:51:49.863Z,26.00
2018-05-13T18:54:20.589Z,25.80
2018-05-13T18:56:51.079Z,25.30
2018-05-13T18:59:21.331Z,24.80
2018-05-13T19:01:51.525Z,24.50
2018-05-13T19:04:22.018Z,24.10
2018-05-13T19:06:52.247Z,23.90
2018-05-13T19:09:22.409Z,23.50
2018-05-13T19:11:53.316Z,23.20
2018-05-13T19:14:30.203Z,23.00
2018-05-13T19:17:00.491Z,22.70
2018-05-13T19:19:30.973Z,22.50
2018-05-13T19:22:01.172Z,22.30
2018-05-13T19:24:32.092Z,22.00
2018-05-13T19:27:03.109Z,21.80
2018-05-13T19:29:33.233Z,21.80
2018-05-13T19:32:03.708Z,21.70
2018-05-13T19:34:34.280Z,21.50
2018-05-13T19:37:04.539Z,21.30
2018-05-13T19:39:35.908Z,21.00
2018-05-13T19:42:06.201Z,21.00
2018-05-13T19:44:37.060Z,20.80
2018-05-13T19:47:08.185Z,20.70
2018-05-13T19:49:39.574Z,20.50
2018-05-13T19:52:09.812Z,20.50
2018-05-13T19:54:40.131Z,20.40
2018-05-13T19:57:11.121Z,20.30
2018-05-13T19:59:42.124Z,20.00
2018-05-13T20:02:12.846Z,20.00
2018-05-13T20:04:42.959Z,20.00
2018-05-13T20:07:13.208Z,19.90
2018-05-13T20:09:43.399Z,19.80
2018-05-13T20:12:13.640Z,19.80
2018-05-13T20:14:43.774Z,19.70
2018-05-13T20:17:14.158Z,19.50
2018-05-13T20:19:45.261Z,19.50
2018-05-13T20:22:15.405Z,19.40
2018-05-13T20:24:46.905Z,19.40
2018-05-13T20:27:17.083Z,19.30
2018-05-13T20:29:47.223Z,19.30
2018-05-13T20:32:17.659Z,19.30
2018-05-13T20:34:47.916Z,19.10
2018-05-13T20:37:18.712Z,19.10
2018-05-13T20:39:49.107Z,19.10
2018-05-13T20:42:19.345Z,19.10
2018-05-13T20:44:50.488Z,19.00
2018-05-13T20:47:20.905Z,19.00
2018-05-13T20:49:53.729Z,18.90
2018-05-13T20:52:24.568Z,18.90
2018-05-13T20:54:54.721Z,18.90
2018-05-13T20:57:25.680Z,19.00
2018-05-13T20:59:56.109Z,18.90
2018-05-13T21:02:26.527Z,18.90
2018-05-13T21:04:56.765Z,18.90
2018-05-13T21:07:29.377Z,18.90
2018-05-13T21:09:59.456Z,18.90
2018-05-13T21:12:29.638Z,18.80
2018-05-13T21:15:00.927Z,18.70
2018-05-13T21:17:31.510Z,18.60
2018-05-13T21:20:03.356Z,18.60
2018-05-13T21:22:34.431Z,18.60
2018-05-13T21:25:04.764Z,18.60
2018-05-13T21:27:35.006Z,18.50
2018-05-13T21:30:06.860Z,18.40
2018-05-13T21:32:37.247Z,18.30
2018-05-13T21:35:09.310Z,18.30
2018-05-13T21:37:40.206Z,18.20
2018-05-13T21:40:10.377Z,18.20
2018-05-13T21:42:41.619Z,18.20
2018-05-13T21:45:12.488Z,18.10
2018-05-13T21:47:42.623Z,18.10
2018-05-13T21:50:13.130Z,18.00
2018-05-13T21:52:43.201Z,18.10
2018-05-13T21:55:13.244Z,18.00
2018-05-13T21:57:44.299Z,17.90
2018-05-13T22:00:14.872Z,17.90
2018-05-13T22:02:45.185Z,17.80
2018-05-13T22:05:15.503Z,17.80
2018-05-13T22:07:45.510Z,17.70
2018-05-13T22:10:15.548Z,17.70
2018-05-13T22:12:45.981Z,17.70
2018-05-13T22:15:16.321Z,17.70
2018-05-13T22:17:46.415Z,17.60
2018-05-13T22:20:17.180Z,17.60
2018-05-13T22:22:47.246Z,17.50
2018-05-13T22:25:17.256Z,17.50
2018-05-13T22:27:47.303Z,17.50
2018-05-13T22:30:17.328Z,17.40
2018-05-13T22:32:48.551Z,17.30
2018-05-13T22:35:18.589Z,17.30
2018-05-13T22:37:48.616Z,17.30
2018-05-13T22:40:20.125Z,17.30
2018-05-13T22:42:50.448Z,17.20
2018-05-13T22:45:20.732Z,17.20
2018-05-13T22:47:51.524Z,17.10
2018-05-13T22:50:21.543Z,17.10
2018-05-13T22:52:51.939Z,17.10
2018-05-13T22:55:22.001Z,17.00
2018-05-13T22:57:52.811Z,16.90
2018-05-13T23:00:23.164Z,16.90
2018-05-13T23:02:53.515Z,16.90
2018-05-13T23:05:23.634Z,16.80
2018-05-13T23:07:53.756Z,16.80
2018-05-13T23:10:24.119Z,16.70
2018-05-13T23:12:54.262Z,16.60
2018-05-13T23:15:25.119Z,16.60
2018-05-13T23:17:55.881Z,16.50
2018-05-13T23:20:26.289Z,16.50
2018-05-13T23:22:56.392Z,16.60
2018-05-13T23:25:26.525Z,16.60
2018-05-13T23:27:56.868Z,16.50
2018-05-13T23:30:26.966Z,16.50
2018-05-13T23:32:57.056Z,16.50
2018-05-13T23:35:33.020Z,16.40
2018-05-13T23:38:03.834Z,16.40
2018-05-13T23:40:34.510Z,16.40
2018-05-13T23:43:04.608Z,16.40
2018-05-13T23:45:35.945Z,16.40
2018-05-13T23:48:06.783Z,16.30
2018-05-13T23:50:36.956Z,16.30
2018-05-13T23:53:07.409Z,16.30
2018-05-13T23:55:44.296Z,16.30
2018-05-13T23:58:15.212Z,16.30
